Harwood, Maryland
Current Conditions -  °F | °C
As of 6:54 AM on Thursday 29 Jan 2015 (Local Time) from KNAK Reporting Station
Clear Clear  
Wind Chill: 22°   Ceiling: Unl
Heat Index: 22°   Visibility: 10mi
Dew Point: 12°   Wind: 0mph
Humidity: 66%   Direction: NA
Pressure: 30.35"   Gusts: NA
Location:  38.87°N, 76.62°W
Report Text: KNAK 291154Z AUTO 00000KT 10SM CLR M06/M11 A3035 RMK AO2 SLP278 T10561111 11022 21056 53004
Loading
Personal Weather Stations






























Interactive Weather Map New forecast layout! Learn more

10-Day Weather Forecast

Advertisements
Track Severe Weather on mobile